sensor_id;sensor_type;location;lat;lon;timestamp;temperature;humidity
29295;DHT22;16305;48.566;8.846;2022-12-10T00:01:48;0.30;99.90
29295;DHT22;16305;48.566;8.846;2022-12-10T00:04:15;0.30;99.90
29295;DHT22;16305;48.566;8.846;2022-12-10T00:06:41;0.30;99.90
29295;DHT22;16305;48.566;8.846;2022-12-10T00:09:11;0.30;99.90
29295;DHT22;16305;48.566;8.846;2022-12-10T00:11:38;0.30;99.90
29295;DHT22;16305;48.566;8.846;2022-12-10T00:14:05;0.40;99.90
29295;DHT22;16305;48.566;8.846;2022-12-10T00:16:33;0.40;99.90
29295;DHT22;16305;48.566;8.846;2022-12-10T00:19:02;0.40;99.90
29295;DHT22;16305;48.566;8.846;2022-12-10T00:21:31;0.30;99.90
29295;DHT22;16305;48.566;8.846;2022-12-10T00:23:57;0.20;99.90
29295;DHT22;16305;48.566;8.846;2022-12-10T00:26:29;0.20;99.90
29295;DHT22;16305;48.566;8.846;2022-12-10T00:28:55;0.20;99.90
29295;DHT22;16305;48.566;8.846;2022-12-10T00:31:24;0.20;99.90
29295;DHT22;16305;48.566;8.846;2022-12-10T00:33:50;0.20;99.90
29295;DHT22;16305;48.566;8.846;2022-12-10T00:36:18;0.10;99.90
29295;DHT22;16305;48.566;8.846;2022-12-10T00:38:44;0.10;99.90
29295;DHT22;16305;48.566;8.846;2022-12-10T00:41:12;0.10;99.90
29295;DHT22;16305;48.566;8.846;2022-12-10T00:43:38;0.10;99.90
29295;DHT22;16305;48.566;8.846;2022-12-10T00:46:04;0.10;99.90
29295;DHT22;16305;48.566;8.846;2022-12-10T00:48:30;0.20;99.90
29295;DHT22;16305;48.566;8.846;2022-12-10T00:51:05;0.20;99.90
29295;DHT22;16305;48.566;8.846;2022-12-10T00:53:33;0.20;99.90
29295;DHT22;16305;48.566;8.846;2022-12-10T00:55:59;0.20;99.90
29295;DHT22;16305;48.566;8.846;2022-12-10T00:58:29;0.20;99.90
29295;DHT22;16305;48.566;8.846;2022-12-10T01:03:36;0.10;99.90
29295;DHT22;16305;48.566;8.846;2022-12-10T01:06:17;0.10;99.90
29295;DHT22;16305;48.566;8.846;2022-12-10T01:08:44;0.20;99.90
29295;DHT22;16305;48.566;8.846;2022-12-10T01:11:12;0.10;99.90
29295;DHT22;16305;48.566;8.846;2022-12-10T01:13:39;0.10;99.90
29295;DHT22;16305;48.566;8.846;2022-12-10T01:16:07;0.10;99.90
29295;DHT22;16305;48.566;8.846;2022-12-10T01:18:33;0.10;99.90
29295;DHT22;16305;48.566;8.846;2022-12-10T01:21:07;0.20;99.90
29295;DHT22;16305;48.566;8.846;2022-12-10T01:23:35;0.20;99.90
29295;DHT22;16305;48.566;8.846;2022-12-10T01:26:04;0.20;99.90
29295;DHT22;16305;48.566;8.846;2022-12-10T01:28:34;0.20;99.90
29295;DHT22;16305;48.566;8.846;2022-12-10T01:31:02;0.20;99.90
29295;DHT22;16305;48.566;8.846;2022-12-10T01:33:29;0.20;99.90
29295;DHT22;16305;48.566;8.846;2022-12-10T01:35:55;0.20;99.90
29295;DHT22;16305;48.566;8.846;2022-12-10T01:38:21;0.30;99.90
29295;DHT22;16305;48.566;8.846;2022-12-10T01:40:46;0.30;99.90
29295;DHT22;16305;48.566;8.846;2022-12-10T01:43:15;0.40;99.90
29295;DHT22;16305;48.566;8.846;2022-12-10T01:45:40;0.30;99.90
29295;DHT22;16305;48.566;8.846;2022-12-10T01:48:06;0.20;99.90
29295;DHT22;16305;48.566;8.846;2022-12-10T01:50:32;0.20;99.90
29295;DHT22;16305;48.566;8.846;2022-12-10T01:52:58;0.20;99.90
29295;DHT22;16305;48.566;8.846;2022-12-10T01:58:05;0.20;99.90
29295;DHT22;16305;48.566;8.846;2022-12-10T02:00:34;0.20;99.90
29295;DHT22;16305;48.566;8.846;2022-12-10T02:03:10;0.20;99.90
29295;DHT22;16305;48.566;8.846;2022-12-10T02:05:49;0.20;99.90
29295;DHT22;16305;48.566;8.846;2022-12-10T02:08:19;0.20;99.90
29295;DHT22;16305;48.566;8.846;2022-12-10T02:10:56;0.10;99.90
29295;DHT22;16305;48.566;8.846;2022-12-10T02:13:40;0.20;99.90
29295;DHT22;16305;48.566;8.846;2022-12-10T02:16:16;0.20;99.90
29295;DHT22;16305;48.566;8.846;2022-12-10T02:18:55;0.20;99.90
29295;DHT22;16305;48.566;8.846;2022-12-10T02:21:38;0.20;99.90
29295;DHT22;16305;48.566;8.846;2022-12-10T02:24:08;0.10;99.90
29295;DHT22;16305;48.566;8.846;2022-12-10T02:26:49;0.10;99.90
29295;DHT22;16305;48.566;8.846;2022-12-10T02:29:23;0.10;99.90
29295;DHT22;16305;48.566;8.846;2022-12-10T02:32:17;0.10;99.90
29295;DHT22;16305;48.566;8.846;2022-12-10T02:34:51;0.10;99.90
29295;DHT22;16305;48.566;8.846;2022-12-10T02:37:22;0.10;99.90
29295;DHT22;16305;48.566;8.846;2022-12-10T02:39:50;0.20;99.90
29295;DHT22;16305;48.566;8.846;2022-12-10T02:42:19;0.20;99.90
29295;DHT22;16305;48.566;8.846;2022-12-10T02:44:48;0.20;99.90
29295;DHT22;16305;48.566;8.846;2022-12-10T02:47:16;0.20;99.90
29295;DHT22;16305;48.566;8.846;2022-12-10T02:49:44;0.30;99.90
29295;DHT22;16305;48.566;8.846;2022-12-10T02:52:18;0.30;99.90
29295;DHT22;16305;48.566;8.846;2022-12-10T02:54:46;0.30;99.90
29295;DHT22;16305;48.566;8.846;2022-12-10T02:57:21;0.30;99.90
29295;DHT22;16305;48.566;8.846;2022-12-10T03:05:27;0.20;99.90
29295;DHT22;16305;48.566;8.846;2022-12-10T03:08:24;0.20;99.90
29295;DHT22;16305;48.566;8.846;2022-12-10T03:13:32;0.30;99.90
29295;DHT22;16305;48.566;8.846;2022-12-10T03:16:00;0.30;99.90
29295;DHT22;16305;48.566;8.846;2022-12-10T03:18:27;0.30;99.90
29295;DHT22;16305;48.566;8.846;2022-12-10T03:20:58;0.40;99.90
29295;DHT22;16305;48.566;8.846;2022-12-10T03:23:26;0.40;99.90
29295;DHT22;16305;48.566;8.846;2022-12-10T03:25:53;0.30;99.90
29295;DHT22;16305;48.566;8.846;2022-12-10T03:28:20;0.20;99.90
29295;DHT22;16305;48.566;8.846;2022-12-10T03:30:47;0.10;99.90
29295;DHT22;16305;48.566;8.846;2022-12-10T03:33:14;0.10;99.90
29295;DHT22;16305;48.566;8.846;2022-12-10T03:35:40;0.00;99.90
29295;DHT22;16305;48.566;8.846;2022-12-10T03:38:07;0.00;99.90
29295;DHT22;16305;48.566;8.846;2022-12-10T03:40:33;0.00;99.90
29295;DHT22;16305;48.566;8.846;2022-12-10T03:42:59;-0.10;99.90
29295;DHT22;16305;48.566;8.846;2022-12-10T03:45:24;0.00;99.90
29295;DHT22;16305;48.566;8.846;2022-12-10T03:47:50;0.00;99.90
29295;DHT22;16305;48.566;8.846;2022-12-10T03:50:15;0.00;99.90
29295;DHT22;16305;48.566;8.846;2022-12-10T03:52:41;0.00;99.90
29295;DHT22;16305;48.566;8.846;2022-12-10T03:55:07;0.00;99.90
29295;DHT22;16305;48.566;8.846;2022-12-10T03:57:34;0.00;99.90
29295;DHT22;16305;48.566;8.846;2022-12-10T04:00:00;0.00;99.90
29295;DHT22;16305;48.566;8.846;2022-12-10T04:02:25;0.00;99.90
29295;DHT22;16305;48.566;8.846;2022-12-10T04:04:51;0.10;99.90
29295;DHT22;16305;48.566;8.846;2022-12-10T04:07:17;0.00;99.90
29295;DHT22;16305;48.566;8.846;2022-12-10T04:09:42;0.00;99.90
29295;DHT22;16305;48.566;8.846;2022-12-10T04:12:08;0.00;99.90
29295;DHT22;16305;48.566;8.846;2022-12-10T04:14:33;0.00;99.90
29295;DHT22;16305;48.566;8.846;2022-12-10T04:17:17;0.10;99.90
29295;DHT22;16305;48.566;8.846;2022-12-10T04:19:43;0.10;99.90
29295;DHT22;16305;48.566;8.846;2022-12-10T04:22:09;0.10;99.90
29295;DHT22;16305;48.566;8.846;2022-12-10T04:24:53;0.00;99.90
29295;DHT22;16305;48.566;8.846;2022-12-10T04:27:51;0.10;99.90
29295;DHT22;16305;48.566;8.846;2022-12-10T04:30:16;0.20;99.90
29295;DHT22;16305;48.566;8.846;2022-12-10T04:32:43;0.20;99.90
29295;DHT22;16305;48.566;8.846;2022-12-10T04:35:08;0.10;99.90
29295;DHT22;16305;48.566;8.846;2022-12-10T04:37:34;0.20;99.90
29295;DHT22;16305;48.566;8.846;2022-12-10T04:40:00;0.20;99.90
29295;DHT22;16305;48.566;8.846;2022-12-10T04:42:25;0.20;99.90
29295;DHT22;16305;48.566;8.846;2022-12-10T04:44:51;0.10;99.90
29295;DHT22;16305;48.566;8.846;2022-12-10T04:47:16;0.10;99.90
29295;DHT22;16305;48.566;8.846;2022-12-10T04:49:42;0.10;99.90
29295;DHT22;16305;48.566;8.846;2022-12-10T04:52:10;0.10;99.90
29295;DHT22;16305;48.566;8.846;2022-12-10T04:54:35;0.10;99.90
29295;DHT22;16305;48.566;8.846;2022-12-10T04:57:01;0.00;99.90
29295;DHT22;16305;48.566;8.846;2022-12-10T04:59:27;0.10;99.90
29295;DHT22;16305;48.566;8.846;2022-12-10T05:01:52;0.10;99.90
29295;DHT22;16305;48.566;8.846;2022-12-10T05:04:18;0.10;99.90
29295;DHT22;16305;48.566;8.846;2022-12-10T05:06:48;0.10;99.90
29295;DHT22;16305;48.566;8.846;2022-12-10T05:09:14;0.10;99.90
29295;DHT22;16305;48.566;8.846;2022-12-10T05:11:39;0.10;99.90
29295;DHT22;16305;48.566;8.846;2022-12-10T05:14:05;0.10;99.90
29295;DHT22;16305;48.566;8.846;2022-12-10T05:16:32;0.10;99.90
29295;DHT22;16305;48.566;8.846;2022-12-10T05:18:59;0.10;99.90
29295;DHT22;16305;48.566;8.846;2022-12-10T05:21:26;0.10;99.90
29295;DHT22;16305;48.566;8.846;2022-12-10T05:24:16;0.10;99.90
29295;DHT22;16305;48.566;8.846;2022-12-10T05:26:43;0.00;99.90
29295;DHT22;16305;48.566;8.846;2022-12-10T05:29:08;0.00;99.90
29295;DHT22;16305;48.566;8.846;2022-12-10T05:31:34;0.00;99.90
29295;DHT22;16305;48.566;8.846;2022-12-10T05:34:00;0.00;99.90
29295;DHT22;16305;48.566;8.846;2022-12-10T05:36:29;0.00;99.90
29295;DHT22;16305;48.566;8.846;2022-12-10T05:38:55;0.00;99.90
29295;DHT22;16305;48.566;8.846;2022-12-10T05:41:30;-0.10;99.90
29295;DHT22;16305;48.566;8.846;2022-12-10T05:43:57;0.00;99.90
29295;DHT22;16305;48.566;8.846;2022-12-10T05:46:26;0.00;99.90
29295;DHT22;16305;48.566;8.846;2022-12-10T05:48:52;-0.10;99.90
29295;DHT22;16305;48.566;8.846;2022-12-10T05:51:26;-0.10;99.90
29295;DHT22;16305;48.566;8.846;2022-12-10T05:53:52;-0.10;99.90
29295;DHT22;16305;48.566;8.846;2022-12-10T05:56:20;-0.10;99.90
29295;DHT22;16305;48.566;8.846;2022-12-10T05:58:47;-0.10;99.90
29295;DHT22;16305;48.566;8.846;2022-12-10T06:01:25;-0.10;99.90
29295;DHT22;16305;48.566;8.846;2022-12-10T06:03:51;-0.10;99.90
29295;DHT22;16305;48.566;8.846;2022-12-10T06:06:26;-0.10;99.90
29295;DHT22;16305;48.566;8.846;2022-12-10T06:08:52;-0.10;99.90
29295;DHT22;16305;48.566;8.846;2022-12-10T06:11:18;-0.10;99.90
29295;DHT22;16305;48.566;8.846;2022-12-10T06:13:44;-0.10;99.90
29295;DHT22;16305;48.566;8.846;2022-12-10T06:16:12;-0.10;99.90
29295;DHT22;16305;48.566;8.846;2022-12-10T06:18:38;-0.10;99.90
29295;DHT22;16305;48.566;8.846;2022-12-10T06:21:12;-0.20;99.90
29295;DHT22;16305;48.566;8.846;2022-12-10T06:23:38;-0.20;99.90
29295;DHT22;16305;48.566;8.846;2022-12-10T06:26:08;-0.10;99.90
29295;DHT22;16305;48.566;8.846;2022-12-10T06:28:36;-0.10;99.90
29295;DHT22;16305;48.566;8.846;2022-12-10T06:31:02;-0.10;99.90
29295;DHT22;16305;48.566;8.846;2022-12-10T06:33:27;-0.10;99.90
29295;DHT22;16305;48.566;8.846;2022-12-10T06:35:53;-0.20;99.90
29295;DHT22;16305;48.566;8.846;2022-12-10T06:38:19;-0.20;99.90
29295;DHT22;16305;48.566;8.846;2022-12-10T06:40:44;-0.10;99.90
29295;DHT22;16305;48.566;8.846;2022-12-10T06:43:10;-0.20;99.90
29295;DHT22;16305;48.566;8.846;2022-12-10T06:45:39;-0.20;99.90
29295;DHT22;16305;48.566;8.846;2022-12-10T06:48:05;-0.20;99.90
29295;DHT22;16305;48.566;8.846;2022-12-10T06:50:31;-0.20;99.90
29295;DHT22;16305;48.566;8.846;2022-12-10T06:52:57;-0.10;99.90
29295;DHT22;16305;48.566;8.846;2022-12-10T06:55:22;-0.20;99.90
29295;DHT22;16305;48.566;8.846;2022-12-10T06:57:57;-0.20;99.90
29295;DHT22;16305;48.566;8.846;2022-12-10T07:00:23;-0.20;99.90
29295;DHT22;16305;48.566;8.846;2022-12-10T07:02:48;-0.20;99.90
29295;DHT22;16305;48.566;8.846;2022-12-10T07:05:14;-0.20;99.90
29295;DHT22;16305;48.566;8.846;2022-12-10T07:07:40;-0.30;99.90
29295;DHT22;16305;48.566;8.846;2022-12-10T07:10:06;-0.30;99.90
29295;DHT22;16305;48.566;8.846;2022-12-10T07:12:32;-0.30;99.90
29295;DHT22;16305;48.566;8.846;2022-12-10T07:14:57;-0.30;99.90
29295;DHT22;16305;48.566;8.846;2022-12-10T07:17:23;-0.40;99.90
29295;DHT22;16305;48.566;8.846;2022-12-10T07:19:49;-0.40;99.90
29295;DHT22;16305;48.566;8.846;2022-12-10T07:22:15;-0.40;99.90
29295;DHT22;16305;48.566;8.846;2022-12-10T07:24:40;-0.40;99.90
29295;DHT22;16305;48.566;8.846;2022-12-10T07:27:07;-0.50;99.90
29295;DHT22;16305;48.566;8.846;2022-12-10T07:29:32;-0.50;99.90
29295;DHT22;16305;48.566;8.846;2022-12-10T07:31:58;-0.50;99.90
29295;DHT22;16305;48.566;8.846;2022-12-10T07:34:23;-0.50;99.90
29295;DHT22;16305;48.566;8.846;2022-12-10T07:36:49;-0.40;99.90
29295;DHT22;16305;48.566;8.846;2022-12-10T07:39:15;-0.50;99.90
29295;DHT22;16305;48.566;8.846;2022-12-10T07:41:49;-0.50;99.90
29295;DHT22;16305;48.566;8.846;2022-12-10T07:44:16;-0.50;99.90
29295;DHT22;16305;48.566;8.846;2022-12-10T07:46:44;-0.50;99.90
29295;DHT22;16305;48.566;8.846;2022-12-10T07:49:10;-0.40;99.90
29295;DHT22;16305;48.566;8.846;2022-12-10T07:51:35;-0.40;99.90
29295;DHT22;16305;48.566;8.846;2022-12-10T07:54:01;-0.40;99.90
29295;DHT22;16305;48.566;8.846;2022-12-10T07:56:26;-0.50;99.90
29295;DHT22;16305;48.566;8.846;2022-12-10T07:58:52;-0.40;99.90
29295;DHT22;16305;48.566;8.846;2022-12-10T08:01:24;-0.50;99.90
29295;DHT22;16305;48.566;8.846;2022-12-10T08:03:50;-0.50;99.90
29295;DHT22;16305;48.566;8.846;2022-12-10T08:06:19;-0.50;99.90
29295;DHT22;16305;48.566;8.846;2022-12-10T08:08:45;-0.50;99.90
29295;DHT22;16305;48.566;8.846;2022-12-10T08:11:12;-0.50;99.90
29295;DHT22;16305;48.566;8.846;2022-12-10T08:13:38;-0.50;99.90
29295;DHT22;16305;48.566;8.846;2022-12-10T08:16:11;-0.50;99.90
29295;DHT22;16305;48.566;8.846;2022-12-10T08:18:37;-0.50;99.90
29295;DHT22;16305;48.566;8.846;2022-12-10T08:21:08;-0.50;99.90
29295;DHT22;16305;48.566;8.846;2022-12-10T08:23:34;-0.50;99.90
29295;DHT22;16305;48.566;8.846;2022-12-10T08:26:06;-0.40;99.90
29295;DHT22;16305;48.566;8.846;2022-12-10T08:28:33;-0.40;99.90
29295;DHT22;16305;48.566;8.846;2022-12-10T08:30:58;-0.30;99.90
29295;DHT22;16305;48.566;8.846;2022-12-10T08:33:24;-0.30;99.90
29295;DHT22;16305;48.566;8.846;2022-12-10T08:35:50;-0.30;99.90
29295;DHT22;16305;48.566;8.846;2022-12-10T08:38:16;-0.30;99.90
29295;DHT22;16305;48.566;8.846;2022-12-10T08:40:42;-0.20;99.90
29295;DHT22;16305;48.566;8.846;2022-12-10T08:43:08;-0.20;99.90
29295;DHT22;16305;48.566;8.846;2022-12-10T08:45:34;-0.20;99.90
29295;DHT22;16305;48.566;8.846;2022-12-10T08:48:01;-0.20;99.90
29295;DHT22;16305;48.566;8.846;2022-12-10T08:50:27;-0.10;99.90
29295;DHT22;16305;48.566;8.846;2022-12-10T08:52:52;-0.10;99.90
29295;DHT22;16305;48.566;8.846;2022-12-10T08:55:18;-0.10;99.90
29295;DHT22;16305;48.566;8.846;2022-12-10T08:57:44;-0.20;99.90
29295;DHT22;16305;48.566;8.846;2022-12-10T09:00:10;-0.20;99.90
29295;DHT22;16305;48.566;8.846;2022-12-10T09:02:35;-0.20;99.90
29295;DHT22;16305;48.566;8.846;2022-12-10T09:05:01;-0.10;99.90
29295;DHT22;16305;48.566;8.846;2022-12-10T09:07:27;-0.10;99.90
29295;DHT22;16305;48.566;8.846;2022-12-10T09:09:52;-0.20;99.90
29295;DHT22;16305;48.566;8.846;2022-12-10T09:12:18;-0.20;99.90
29295;DHT22;16305;48.566;8.846;2022-12-10T09:14:43;-0.10;99.90
29295;DHT22;16305;48.566;8.846;2022-12-10T09:17:09;-0.10;99.90
29295;DHT22;16305;48.566;8.846;2022-12-10T09:19:35;-0.10;99.90
29295;DHT22;16305;48.566;8.846;2022-12-10T09:22:00;-0.10;99.90
29295;DHT22;16305;48.566;8.846;2022-12-10T09:24:26;-0.10;99.90
29295;DHT22;16305;48.566;8.846;2022-12-10T09:26:51;-0.20;99.90
29295;DHT22;16305;48.566;8.846;2022-12-10T09:29:17;-0.10;99.90
29295;DHT22;16305;48.566;8.846;2022-12-10T09:31:42;-0.20;99.90
29295;DHT22;16305;48.566;8.846;2022-12-10T09:34:08;-0.20;99.90
29295;DHT22;16305;48.566;8.846;2022-12-10T09:36:34;-0.20;99.90
29295;DHT22;16305;48.566;8.846;2022-12-10T09:38:59;-0.20;99.90
29295;DHT22;16305;48.566;8.846;2022-12-10T09:41:49;-0.20;99.90
29295;DHT22;16305;48.566;8.846;2022-12-10T09:44:40;-0.10;99.90
29295;DHT22;16305;48.566;8.846;2022-12-10T09:47:08;-0.10;99.90
29295;DHT22;16305;48.566;8.846;2022-12-10T09:52:05;-0.10;99.90
29295;DHT22;16305;48.566;8.846;2022-12-10T09:57:05;-0.10;99.90
29295;DHT22;16305;48.566;8.846;2022-12-10T09:59:39;-0.10;99.90
29295;DHT22;16305;48.566;8.846;2022-12-10T10:02:29;-0.10;99.90
29295;DHT22;16305;48.566;8.846;2022-12-10T10:07:38;0.00;99.90
29295;DHT22;16305;48.566;8.846;2022-12-10T10:10:35;-0.10;99.90
29295;DHT22;16305;48.566;8.846;2022-12-10T10:15:36;-0.10;99.90
29295;DHT22;16305;48.566;8.846;2022-12-10T10:18:09;-0.10;99.90
29295;DHT22;16305;48.566;8.846;2022-12-10T10:20:37;-0.10;99.90
29295;DHT22;16305;48.566;8.846;2022-12-10T10:23:02;-0.10;99.90
29295;DHT22;16305;48.566;8.846;2022-12-10T10:25:28;-0.10;99.90
29295;DHT22;16305;48.566;8.846;2022-12-10T10:27:55;0.00;99.90
29295;DHT22;16305;48.566;8.846;2022-12-10T10:30:22;0.10;99.90
29295;DHT22;16305;48.566;8.846;2022-12-10T10:32:57;0.30;99.90
29295;DHT22;16305;48.566;8.846;2022-12-10T10:35:31;0.20;99.90
29295;DHT22;16305;48.566;8.846;2022-12-10T10:38:06;0.20;99.90
29295;DHT22;16305;48.566;8.846;2022-12-10T10:40:39;0.10;99.90
29295;DHT22;16305;48.566;8.846;2022-12-10T10:43:06;0.10;99.90
29295;DHT22;16305;48.566;8.846;2022-12-10T10:48:17;0.20;99.90
29295;DHT22;16305;48.566;8.846;2022-12-10T10:50:46;0.20;99.90
29295;DHT22;16305;48.566;8.846;2022-12-10T10:56:15;0.10;99.90
29295;DHT22;16305;48.566;8.846;2022-12-10T10:59:06;0.10;99.90
29295;DHT22;16305;48.566;8.846;2022-12-10T11:01:52;0.10;99.90
29295;DHT22;16305;48.566;8.846;2022-12-10T11:04:28;0.20;99.90
29295;DHT22;16305;48.566;8.846;2022-12-10T11:06:56;0.20;99.90
29295;DHT22;16305;48.566;8.846;2022-12-10T11:09:28;0.20;99.90
29295;DHT22;16305;48.566;8.846;2022-12-10T11:12:00;0.20;99.90
29295;DHT22;16305;48.566;8.846;2022-12-10T11:14:30;0.20;99.90
29295;DHT22;16305;48.566;8.846;2022-12-10T11:19:59;0.20;99.90
29295;DHT22;16305;48.566;8.846;2022-12-10T11:22:33;0.30;99.90
29295;DHT22;16305;48.566;8.846;2022-12-10T11:25:00;0.30;99.90
29295;DHT22;16305;48.566;8.846;2022-12-10T11:27:49;0.30;99.90
29295;DHT22;16305;48.566;8.846;2022-12-10T11:30:21;0.30;99.90
29295;DHT22;16305;48.566;8.846;2022-12-10T11:35:59;0.30;99.90
29295;DHT22;16305;48.566;8.846;2022-12-10T11:38:47;0.40;99.90
29295;DHT22;16305;48.566;8.846;2022-12-10T11:46:57;0.50;99.90
29295;DHT22;16305;48.566;8.846;2022-12-10T11:49:48;0.50;99.90
29295;DHT22;16305;48.566;8.846;2022-12-10T11:52:36;0.60;99.90
29295;DHT22;16305;48.566;8.846;2022-12-10T12:06:40;0.40;99.90
29295;DHT22;16305;48.566;8.846;2022-12-10T12:09:19;0.40;99.90
29295;DHT22;16305;48.566;8.846;2022-12-10T12:15:23;0.40;99.90
29295;DHT22;16305;48.566;8.846;2022-12-10T12:18:01;0.50;99.90
29295;DHT22;16305;48.566;8.846;2022-12-10T12:21:01;0.50;99.90
29295;DHT22;16305;48.566;8.846;2022-12-10T12:23:34;0.50;99.90
29295;DHT22;16305;48.566;8.846;2022-12-10T12:26:11;0.50;99.90
29295;DHT22;16305;48.566;8.846;2022-12-10T12:28:50;0.50;99.90
29295;DHT22;16305;48.566;8.846;2022-12-10T12:31:21;0.50;99.90
29295;DHT22;16305;48.566;8.846;2022-12-10T12:33:54;0.50;99.90
29295;DHT22;16305;48.566;8.846;2022-12-10T12:36:27;0.60;99.90
29295;DHT22;16305;48.566;8.846;2022-12-10T12:39:28;0.60;99.90
29295;DHT22;16305;48.566;8.846;2022-12-10T12:47:04;0.50;99.90
29295;DHT22;16305;48.566;8.846;2022-12-10T12:49:38;0.50;99.90
29295;DHT22;16305;48.566;8.846;2022-12-10T12:52:25;0.60;99.90
29295;DHT22;16305;48.566;8.846;2022-12-10T12:54:57;0.60;99.90
29295;DHT22;16305;48.566;8.846;2022-12-10T13:05:29;0.70;99.90
29295;DHT22;16305;48.566;8.846;2022-12-10T13:15:53;0.80;99.90
29295;DHT22;16305;48.566;8.846;2022-12-10T13:18:39;0.70;99.90
29295;DHT22;16305;48.566;8.846;2022-12-10T13:21:28;0.60;99.90
29295;DHT22;16305;48.566;8.846;2022-12-10T13:24:09;0.50;99.90
29295;DHT22;16305;48.566;8.846;2022-12-10T13:26:35;0.50;99.90
29295;DHT22;16305;48.566;8.846;2022-12-10T13:29:26;0.40;99.90
29295;DHT22;16305;48.566;8.846;2022-12-10T13:31:57;0.40;99.90
29295;DHT22;16305;48.566;8.846;2022-12-10T13:34:34;0.40;99.90
29295;DHT22;16305;48.566;8.846;2022-12-10T13:37:12;0.40;99.90
29295;DHT22;16305;48.566;8.846;2022-12-10T13:39:59;0.30;99.90
29295;DHT22;16305;48.566;8.846;2022-12-10T13:42:28;0.30;99.90
29295;DHT22;16305;48.566;8.846;2022-12-10T13:47:52;0.30;99.90
29295;DHT22;16305;48.566;8.846;2022-12-10T13:50:35;0.30;99.90
29295;DHT22;16305;48.566;8.846;2022-12-10T14:06:36;0.10;99.90
29295;DHT22;16305;48.566;8.846;2022-12-10T14:09:04;0.10;99.90
29295;DHT22;16305;48.566;8.846;2022-12-10T14:11:34;0.10;99.90
29295;DHT22;16305;48.566;8.846;2022-12-10T14:14:02;0.10;99.90
29295;DHT22;16305;48.566;8.846;2022-12-10T14:16:32;0.10;99.90
29295;DHT22;16305;48.566;8.846;2022-12-10T14:19:01;0.10;99.90
29295;DHT22;16305;48.566;8.846;2022-12-10T14:21:32;0.10;99.90
29295;DHT22;16305;48.566;8.846;2022-12-10T14:23:58;0.10;99.90
29295;DHT22;16305;48.566;8.846;2022-12-10T14:26:29;0.10;99.90
29295;DHT22;16305;48.566;8.846;2022-12-10T14:31:35;0.00;99.90
29295;DHT22;16305;48.566;8.846;2022-12-10T14:34:07;0.00;99.90
29295;DHT22;16305;48.566;8.846;2022-12-10T14:36:37;0.00;99.90
29295;DHT22;16305;48.566;8.846;2022-12-10T14:39:18;0.00;99.90
29295;DHT22;16305;48.566;8.846;2022-12-10T14:41:45;0.00;99.90
29295;DHT22;16305;48.566;8.846;2022-12-10T14:44:15;-0.10;99.90
29295;DHT22;16305;48.566;8.846;2022-12-10T14:46:41;-0.10;99.90
29295;DHT22;16305;48.566;8.846;2022-12-10T14:49:31;-0.10;99.90
29295;DHT22;16305;48.566;8.846;2022-12-10T14:51:57;-0.10;99.90
29295;DHT22;16305;48.566;8.846;2022-12-10T14:54:29;-0.10;99.90
29295;DHT22;16305;48.566;8.846;2022-12-10T14:57:00;-0.20;99.90
29295;DHT22;16305;48.566;8.846;2022-12-10T14:59:40;-0.10;99.90
29295;DHT22;16305;48.566;8.846;2022-12-10T15:02:22;-0.20;99.90
29295;DHT22;16305;48.566;8.846;2022-12-10T15:04:49;-0.20;99.90
29295;DHT22;16305;48.566;8.846;2022-12-10T15:07:22;-0.20;99.90
29295;DHT22;16305;48.566;8.846;2022-12-10T15:09:50;-0.20;99.90
29295;DHT22;16305;48.566;8.846;2022-12-10T15:12:26;-0.20;99.90
29295;DHT22;16305;48.566;8.846;2022-12-10T15:14:54;-0.30;99.90
29295;DHT22;16305;48.566;8.846;2022-12-10T15:17:39;-0.20;99.90
29295;DHT22;16305;48.566;8.846;2022-12-10T15:20:18;-0.30;99.90
29295;DHT22;16305;48.566;8.846;2022-12-10T15:22:44;-0.20;99.90
29295;DHT22;16305;48.566;8.846;2022-12-10T15:25:24;-0.30;99.90
29295;DHT22;16305;48.566;8.846;2022-12-10T15:27:54;-0.30;99.90
29295;DHT22;16305;48.566;8.846;2022-12-10T15:30:38;-0.30;99.90
29295;DHT22;16305;48.566;8.846;2022-12-10T15:33:19;-0.30;99.90
29295;DHT22;16305;48.566;8.846;2022-12-10T15:35:46;-0.40;99.90
29295;DHT22;16305;48.566;8.846;2022-12-10T15:38:13;-0.40;99.90
29295;DHT22;16305;48.566;8.846;2022-12-10T15:40:38;-0.40;99.90
29295;DHT22;16305;48.566;8.846;2022-12-10T15:43:30;-0.40;99.90
29295;DHT22;16305;48.566;8.846;2022-12-10T15:45:57;-0.40;99.90
29295;DHT22;16305;48.566;8.846;2022-12-10T15:48:24;-0.50;99.90
29295;DHT22;16305;48.566;8.846;2022-12-10T15:50:52;-0.50;99.90
29295;DHT22;16305;48.566;8.846;2022-12-10T15:53:27;-0.40;99.90
29295;DHT22;16305;48.566;8.846;2022-12-10T15:55:53;-0.50;99.90
29295;DHT22;16305;48.566;8.846;2022-12-10T15:58:18;-0.50;99.90
29295;DHT22;16305;48.566;8.846;2022-12-10T16:00:44;-0.50;99.90
29295;DHT22;16305;48.566;8.846;2022-12-10T16:03:16;-0.50;99.90
29295;DHT22;16305;48.566;8.846;2022-12-10T16:05:43;-0.50;99.90
29295;DHT22;16305;48.566;8.846;2022-12-10T16:10:39;-0.60;99.90
29295;DHT22;16305;48.566;8.846;2022-12-10T16:13:11;-0.70;99.90
29295;DHT22;16305;48.566;8.846;2022-12-10T16:16:02;-0.70;99.90
29295;DHT22;16305;48.566;8.846;2022-12-10T16:18:29;-0.70;99.90
29295;DHT22;16305;48.566;8.846;2022-12-10T16:20:55;-0.70;99.90
29295;DHT22;16305;48.566;8.846;2022-12-10T16:23:20;-0.70;99.90
29295;DHT22;16305;48.566;8.846;2022-12-10T16:25:47;-0.70;99.90
29295;DHT22;16305;48.566;8.846;2022-12-10T16:28:21;-0.80;99.90
29295;DHT22;16305;48.566;8.846;2022-12-10T16:30:53;-0.70;99.90
29295;DHT22;16305;48.566;8.846;2022-12-10T16:33:20;-0.80;99.90
29295;DHT22;16305;48.566;8.846;2022-12-10T16:35:47;-0.80;99.90
29295;DHT22;16305;48.566;8.846;2022-12-10T16:38:13;-0.80;99.90
29295;DHT22;16305;48.566;8.846;2022-12-10T16:40:40;-0.80;99.90
29295;DHT22;16305;48.566;8.846;2022-12-10T16:43:18;-0.90;99.90
29295;DHT22;16305;48.566;8.846;2022-12-10T16:45:44;-0.90;99.90
29295;DHT22;16305;48.566;8.846;2022-12-10T16:48:10;-0.90;99.90
29295;DHT22;16305;48.566;8.846;2022-12-10T16:50:36;-0.90;99.90
29295;DHT22;16305;48.566;8.846;2022-12-10T16:53:27;-0.90;99.90
29295;DHT22;16305;48.566;8.846;2022-12-10T16:55:54;-1.00;99.90
29295;DHT22;16305;48.566;8.846;2022-12-10T16:58:23;-1.00;99.90
29295;DHT22;16305;48.566;8.846;2022-12-10T17:00:51;-1.00;99.90
29295;DHT22;16305;48.566;8.846;2022-12-10T17:03:21;-1.10;99.90
29295;DHT22;16305;48.566;8.846;2022-12-10T17:05:49;-1.00;99.90
29295;DHT22;16305;48.566;8.846;2022-12-10T17:08:17;-0.90;99.90
29295;DHT22;16305;48.566;8.846;2022-12-10T17:10:43;-0.80;99.90
29295;DHT22;16305;48.566;8.846;2022-12-10T17:13:28;-1.00;99.90
29295;DHT22;16305;48.566;8.846;2022-12-10T17:15:54;-1.10;99.90
29295;DHT22;16305;48.566;8.846;2022-12-10T17:18:20;-1.20;99.90
29295;DHT22;16305;48.566;8.846;2022-12-10T17:20:46;-1.00;99.90
29295;DHT22;16305;48.566;8.846;2022-12-10T17:23:12;-0.90;99.90
29295;DHT22;16305;48.566;8.846;2022-12-10T17:25:39;-0.90;99.90
29295;DHT22;16305;48.566;8.846;2022-12-10T17:28:05;-0.90;99.90
29295;DHT22;16305;48.566;8.846;2022-12-10T17:30:31;-0.90;99.90
29295;DHT22;16305;48.566;8.846;2022-12-10T17:32:57;-0.90;99.90
29295;DHT22;16305;48.566;8.846;2022-12-10T17:35:22;-0.90;99.90
29295;DHT22;16305;48.566;8.846;2022-12-10T17:37:48;-1.00;99.90